createdAt,value
2018-08-06T00:00:40.515Z,65.64
2018-08-06T00:03:08.706Z,65.80
2018-08-06T00:05:36.733Z,65.24
2018-08-06T00:08:05.521Z,65.01
2018-08-06T00:10:33.530Z,65.99
2018-08-06T00:13:01.523Z,65.77
2018-08-06T00:15:29.520Z,66.19
2018-08-06T00:17:57.524Z,67.00
2018-08-06T00:20:25.554Z,66.58
2018-08-06T00:22:53.568Z,66.32
2018-08-06T00:25:21.640Z,66.86
2018-08-06T00:27:49.666Z,66.29
2018-08-06T00:30:18.782Z,66.28
2018-08-06T00:32:47.522Z,66.43
2018-08-06T00:35:15.886Z,67.14
2018-08-06T00:37:43.900Z,65.99
2018-08-06T00:40:13.476Z,66.12
2018-08-06T00:42:42.316Z,66.95
2018-08-06T00:45:11.913Z,67.16
2018-08-06T00:47:39.924Z,67.13
2018-08-06T00:50:08.432Z,67.90
2018-08-06T00:52:36.712Z,68.29
2018-08-06T00:55:05.081Z,67.70
2018-08-06T00:57:33.111Z,67.07
2018-08-06T01:00:01.157Z,66.91
2018-08-06T01:02:29.197Z,67.23
2018-08-06T01:04:57.199Z,68.23
2018-08-06T01:07:25.273Z,67.45
2018-08-06T01:09:53.601Z,67.64
2018-08-06T01:12:21.593Z,67.49
2018-08-06T01:14:49.672Z,68.10
2018-08-06T01:17:17.698Z,68.23
2018-08-06T01:19:45.680Z,68.30
2018-08-06T01:22:13.661Z,68.06
2018-08-06T01:24:41.696Z,68.13
2018-08-06T01:27:09.738Z,68.27
2018-08-06T01:29:37.737Z,68.45
2018-08-06T01:32:05.724Z,68.58
2018-08-06T01:34:33.744Z,67.82
2018-08-06T01:37:01.764Z,67.87
2018-08-06T01:39:29.784Z,67.93
2018-08-06T01:41:57.938Z,68.51
2018-08-06T01:44:25.928Z,70.30
2018-08-06T01:46:53.916Z,70.50
2018-08-06T01:49:21.917Z,69.41
2018-08-06T01:51:49.997Z,69.30
2018-08-06T01:54:17.993Z,70.11
2018-08-06T01:56:46.013Z,70.62
2018-08-06T01:59:14.005Z,70.87
2018-08-06T02:01:42.296Z,70.11
2018-08-06T02:04:10.358Z,70.64
2018-08-06T02:06:38.356Z,70.71
2018-08-06T02:09:07.376Z,71.36
2018-08-06T02:11:35.434Z,71.50
2018-08-06T02:14:03.674Z,71.93
2018-08-06T02:16:31.696Z,72.00
2018-08-06T02:18:59.699Z,71.30
2018-08-06T02:21:27.684Z,72.02
2018-08-06T02:23:55.709Z,71.76
2018-08-06T02:26:23.734Z,71.52
2018-08-06T02:28:51.743Z,70.78
2018-08-06T02:31:19.748Z,70.60
2018-08-06T02:33:47.839Z,71.50
2018-08-06T02:36:15.876Z,71.37
2018-08-06T02:38:44.077Z,71.73
2018-08-06T02:41:12.097Z,70.65
2018-08-06T02:43:40.121Z,70.46
2018-08-06T02:46:08.103Z,71.18
2018-08-06T02:48:36.102Z,71.05
2018-08-06T02:51:04.084Z,70.51
2018-08-06T02:53:32.160Z,70.29
2018-08-06T02:56:00.169Z,71.23
2018-08-06T02:58:28.157Z,70.54
2018-08-06T03:00:56.157Z,70.23
2018-08-06T03:03:24.184Z,70.41
2018-08-06T03:05:52.177Z,69.99
2018-08-06T03:08:20.196Z,69.20
2018-08-06T03:10:48.233Z,69.95
2018-08-06T03:13:16.185Z,69.19
2018-08-06T03:15:44.233Z,68.77
2018-08-06T03:18:12.200Z,68.24
2018-08-06T03:20:40.221Z,68.60
2018-08-06T03:23:08.217Z,68.78
2018-08-06T03:25:36.205Z,68.33
2018-08-06T03:28:04.441Z,68.85
2018-08-06T03:30:32.437Z,68.70
2018-08-06T03:33:00.432Z,68.75
2018-08-06T03:35:28.469Z,68.39
2018-08-06T03:37:56.493Z,68.86
2018-08-06T03:40:24.496Z,68.75
2018-08-06T03:42:52.664Z,69.14
2018-08-06T03:45:20.684Z,69.74
2018-08-06T03:47:48.708Z,70.71
2018-08-06T03:50:16.712Z,70.39
2018-08-06T03:52:44.742Z,69.47
2018-08-06T03:55:12.939Z,69.75
2018-08-06T03:57:41.400Z,69.74
2018-08-06T04:00:11.530Z,69.32
2018-08-06T04:02:39.815Z,69.16
2018-08-06T04:05:09.128Z,69.75
2018-08-06T04:07:37.162Z,69.47
2018-08-06T04:10:05.868Z,69.16
2018-08-06T04:12:33.868Z,69.20
2018-08-06T04:15:01.883Z,69.03
2018-08-06T04:17:29.892Z,68.76
2018-08-06T04:19:57.993Z,68.80
2018-08-06T04:22:26.088Z,69.00
2018-08-06T04:24:54.124Z,68.39
2018-08-06T04:27:22.096Z,68.16
2018-08-06T04:29:50.119Z,69.16
2018-08-06T04:32:18.100Z,69.66
2018-08-06T04:34:46.134Z,69.38
2018-08-06T04:37:14.117Z,69.99
2018-08-06T04:39:42.134Z,71.40
2018-08-06T04:42:10.145Z,73.58
2018-08-06T04:44:38.175Z,73.23
2018-08-06T04:47:06.197Z,72.38
2018-08-06T04:49:34.189Z,71.43
2018-08-06T04:52:02.257Z,70.82
2018-08-06T04:54:30.233Z,71.12
2018-08-06T04:56:58.232Z,71.32
2018-08-06T04:59:26.272Z,71.58
2018-08-06T05:01:54.234Z,71.70
2018-08-06T05:04:22.272Z,71.81
2018-08-06T05:06:50.300Z,72.76
2018-08-06T05:09:22.324Z,72.66
2018-08-06T05:11:50.708Z,72.92
2018-08-06T05:14:18.833Z,72.99
2018-08-06T05:16:46.836Z,73.35
2018-08-06T05:19:14.846Z,73.47
2018-08-06T05:21:42.836Z,73.20
2018-08-06T05:24:10.864Z,69.19
2018-08-06T05:26:38.911Z,62.67
2018-08-06T05:29:06.953Z,55.11
2018-08-06T05:31:34.972Z,48.06
2018-08-06T05:34:02.989Z,43.08
2018-08-06T05:36:31.008Z,39.81
2018-08-06T05:38:59.048Z,36.50
2018-08-06T05:41:27.424Z,34.40
2018-08-06T05:43:56.217Z,32.89
2018-08-06T05:46:24.418Z,31.33
2018-08-06T05:48:52.580Z,30.91
2018-08-06T05:51:20.646Z,29.86
2018-08-06T05:53:48.617Z,28.54
2018-08-06T05:56:16.680Z,28.26
2018-08-06T05:58:44.776Z,26.96
2018-08-06T06:01:12.790Z,26.35
2018-08-06T06:03:40.780Z,25.84
2018-08-06T06:06:09.256Z,25.06
2018-08-06T06:08:38.142Z,24.71
2018-08-06T06:11:06.536Z,23.29
2018-08-06T06:13:34.943Z,23.33
2018-08-06T06:16:02.980Z,23.33
2018-08-06T06:18:31.012Z,23.09
2018-08-06T06:20:59.042Z,22.80
2018-08-06T06:23:27.075Z,23.87
2018-08-06T06:25:55.166Z,23.47
2018-08-06T06:28:23.180Z,22.20
2018-08-06T06:30:51.305Z,23.25
2018-08-06T06:33:19.349Z,24.00
2018-08-06T06:35:47.453Z,24.22
2018-08-06T06:38:15.473Z,23.33
2018-08-06T06:40:43.515Z,24.24
2018-08-06T06:43:11.536Z,23.99
2018-08-06T06:45:39.656Z,25.10
2018-08-06T06:48:07.908Z,24.74
2018-08-06T06:50:35.949Z,26.32
2018-08-06T06:53:04.196Z,24.62
2018-08-06T06:55:32.216Z,23.69
2018-08-06T06:58:00.256Z,23.38
2018-08-06T07:00:28.342Z,23.69
2018-08-06T07:02:56.385Z,23.29
2018-08-06T07:05:24.395Z,24.10
2018-08-06T07:07:52.469Z,23.80
2018-08-06T07:10:20.476Z,23.59
2018-08-06T07:12:48.493Z,23.33
2018-08-06T07:15:17.304Z,22.71
2018-08-06T07:17:47.032Z,23.23
2018-08-06T07:20:16.326Z,23.41
2018-08-06T07:22:44.313Z,22.99
2018-08-06T07:25:12.726Z,22.18
2018-08-06T07:27:41.825Z,22.92
2018-08-06T07:30:12.412Z,21.37
2018-08-06T07:32:41.294Z,22.15
2018-08-06T07:35:10.377Z,22.75
2018-08-06T07:37:38.667Z,24.23
2018-08-06T07:40:08.598Z,25.05
2018-08-06T07:42:36.589Z,24.30
2018-08-06T07:45:06.737Z,25.34
2018-08-06T07:47:34.748Z,26.47
2018-08-06T07:50:02.845Z,25.30
2018-08-06T07:52:30.891Z,26.74
2018-08-06T07:54:58.874Z,27.44
2018-08-06T07:57:26.936Z,27.28
2018-08-06T07:59:54.937Z,26.77
2018-08-06T08:02:29.674Z,27.50
2018-08-06T08:04:57.715Z,27.91
2018-08-06T08:07:25.797Z,26.95
2018-08-06T08:09:53.810Z,27.43
2018-08-06T08:12:21.930Z,27.34
2018-08-06T08:14:49.989Z,27.83
2018-08-06T08:17:18.117Z,27.40
2018-08-06T08:19:46.273Z,27.91
2018-08-06T08:22:14.345Z,28.08
2018-08-06T08:24:43.192Z,28.38
2018-08-06T08:27:11.454Z,27.39
2018-08-06T08:29:39.612Z,29.41
2018-08-06T08:32:14.324Z,28.80
2018-08-06T08:34:42.510Z,28.57
2018-08-06T08:37:10.676Z,26.95
2018-08-06T08:39:38.860Z,28.11
2018-08-06T08:42:06.873Z,28.89
2018-08-06T08:44:35.220Z,29.13
2018-08-06T08:47:03.204Z,29.59
2018-08-06T08:49:31.288Z,30.29
2018-08-06T08:51:59.333Z,30.22
2018-08-06T08:54:27.372Z,29.49
2018-08-06T08:56:55.409Z,30.36
2018-08-06T08:59:23.412Z,33.71
2018-08-06T09:01:51.556Z,33.42
2018-08-06T09:04:19.756Z,32.69
2018-08-06T09:06:47.821Z,32.59
2018-08-06T09:09:15.878Z,31.03
2018-08-06T09:11:43.933Z,31.87
2018-08-06T09:14:12.036Z,33.04
2018-08-06T09:16:40.000Z,32.44
2018-08-06T09:19:07.996Z,29.69
2018-08-06T09:21:36.009Z,31.64
2018-08-06T09:24:04.208Z,31.57
2018-08-06T09:26:32.228Z,34.54
2018-08-06T09:29:00.544Z,33.96
2018-08-06T09:31:28.604Z,33.78
2018-08-06T09:33:56.642Z,32.66
2018-08-06T09:36:24.661Z,32.33
2018-08-06T09:38:52.784Z,30.16
2018-08-06T09:41:20.891Z,30.10
2018-08-06T09:43:49.108Z,29.69
2018-08-06T09:46:17.170Z,31.70
2018-08-06T09:48:45.248Z,30.16
2018-08-06T09:51:13.284Z,29.98
2018-08-06T09:53:41.456Z,31.71
2018-08-06T09:56:09.537Z,31.14
2018-08-06T09:58:37.651Z,33.86
2018-08-06T10:01:11.312Z,32.30
2018-08-06T10:03:39.398Z,32.38
2018-08-06T10:06:07.567Z,32.52
2018-08-06T10:08:35.572Z,32.45
2018-08-06T10:11:03.652Z,33.70
2018-08-06T10:13:31.712Z,31.90
2018-08-06T10:15:59.793Z,32.98
2018-08-06T10:18:27.947Z,33.24
2018-08-06T10:20:56.088Z,33.00
2018-08-06T10:23:24.391Z,33.25
2018-08-06T10:25:54.284Z,33.63
2018-08-06T10:28:22.648Z,34.15
2018-08-06T10:30:50.661Z,33.50
2018-08-06T10:33:18.688Z,33.79
2018-08-06T10:35:46.704Z,32.09
2018-08-06T10:38:14.716Z,33.30
2018-08-06T10:40:42.739Z,31.74
2018-08-06T10:43:10.788Z,32.45
2018-08-06T10:45:38.829Z,32.00
2018-08-06T10:48:06.808Z,32.37
2018-08-06T10:50:34.873Z,31.91
2018-08-06T10:53:02.889Z,32.03
2018-08-06T10:55:30.966Z,31.58
2018-08-06T10:57:59.037Z,32.54
2018-08-06T11:00:27.021Z,31.07
2018-08-06T11:02:55.082Z,31.05
2018-08-06T11:05:23.044Z,31.72
2018-08-06T11:07:51.045Z,31.48
2018-08-06T11:10:20.336Z,31.29
2018-08-06T11:12:48.376Z,31.02
2018-08-06T11:15:19.057Z,32.18
2018-08-06T11:17:47.109Z,32.03
2018-08-06T11:20:16.025Z,30.16
2018-08-06T11:22:44.104Z,30.51
2018-08-06T11:25:16.646Z,30.53
2018-08-06T11:27:44.656Z,31.21
2018-08-06T11:30:14.616Z,31.49
2018-08-06T11:32:42.670Z,30.76
2018-08-06T11:35:11.396Z,31.17
2018-08-06T11:37:39.548Z,30.21
2018-08-06T11:40:09.076Z,31.72
2018-08-06T11:42:37.616Z,28.89
2018-08-06T11:45:06.026Z,29.61
2018-08-06T11:47:34.130Z,29.36
2018-08-06T11:50:02.153Z,29.87
2018-08-06T11:52:30.150Z,30.84
2018-08-06T11:54:58.140Z,28.43
2018-08-06T11:57:26.148Z,29.05
2018-08-06T11:59:54.188Z,29.62
2018-08-06T12:02:22.581Z,28.75
2018-08-06T12:04:50.746Z,28.61
2018-08-06T12:07:18.769Z,28.30
2018-08-06T12:09:46.778Z,28.96
2018-08-06T12:12:14.779Z,27.08
2018-08-06T12:14:43.084Z,28.62
2018-08-06T12:17:11.098Z,28.50
2018-08-06T12:19:39.093Z,27.63
2018-08-06T12:22:07.202Z,28.72
2018-08-06T12:24:35.200Z,27.84
2018-08-06T12:27:03.184Z,28.14
2018-08-06T12:29:31.184Z,27.64
2018-08-06T12:31:59.512Z,28.79
2018-08-06T12:34:27.784Z,28.78
2018-08-06T12:36:55.797Z,28.18
2018-08-06T12:39:23.898Z,27.43
2018-08-06T12:41:51.980Z,27.12
2018-08-06T12:44:19.988Z,25.29
2018-08-06T12:46:48.011Z,26.99
2018-08-06T12:49:16.021Z,27.30
2018-08-06T12:51:44.072Z,26.17
2018-08-06T12:54:12.083Z,26.56
2018-08-06T12:56:40.155Z,25.64
2018-08-06T12:59:08.165Z,26.67
2018-08-06T13:01:36.215Z,25.33
2018-08-06T13:04:04.230Z,26.39
2018-08-06T13:06:32.228Z,25.77
2018-08-06T13:09:00.220Z,26.45
2018-08-06T13:11:28.279Z,24.75
2018-08-06T13:13:56.221Z,23.72
2018-08-06T13:16:24.224Z,25.06
2018-08-06T13:18:52.361Z,24.51
2018-08-06T13:21:20.396Z,23.98
2018-08-06T13:23:48.457Z,23.72
2018-08-06T13:26:16.463Z,24.89
2018-08-06T13:28:45.476Z,24.90
2018-08-06T13:31:13.621Z,24.48
2018-08-06T13:33:41.661Z,22.47
2018-08-06T13:36:09.732Z,23.12
2018-08-06T13:38:37.728Z,22.80
2018-08-06T13:41:05.812Z,23.36
2018-08-06T13:43:33.816Z,22.24
2018-08-06T13:46:01.816Z,25.51
2018-08-06T13:48:29.825Z,21.99
2018-08-06T13:50:57.925Z,23.55
2018-08-06T13:53:25.955Z,21.02
2018-08-06T13:55:53.940Z,22.59
2018-08-06T13:58:22.023Z,22.05
2018-08-06T14:00:50.038Z,21.89
2018-08-06T14:03:18.020Z,21.38
2018-08-06T14:05:45.979Z,23.20
2018-08-06T14:08:14.056Z,21.38
2018-08-06T14:10:42.072Z,21.62
2018-08-06T14:13:10.208Z,21.73
2018-08-06T14:15:38.197Z,21.54
2018-08-06T14:18:06.197Z,20.98
2018-08-06T14:20:34.187Z,21.18
2018-08-06T14:23:02.177Z,21.78
2018-08-06T14:25:30.260Z,21.55
2018-08-06T14:27:58.274Z,22.25
2018-08-06T14:30:26.278Z,23.11
2018-08-06T14:32:54.296Z,22.92
2018-08-06T14:35:22.388Z,22.95
2018-08-06T14:37:50.854Z,22.38
2018-08-06T14:40:19.562Z,20.56
2018-08-06T14:42:47.920Z,21.14
2018-08-06T14:45:15.968Z,20.68
2018-08-06T14:47:43.982Z,22.26
2018-08-06T14:50:13.356Z,20.25
2018-08-06T14:52:41.400Z,20.13
2018-08-06T14:55:09.469Z,20.24
2018-08-06T14:57:38.758Z,20.16
2018-08-06T15:00:22.744Z,20.68
2018-08-06T15:02:51.746Z,19.72
2018-08-06T15:05:19.809Z,19.11
2018-08-06T15:07:48.065Z,19.77
2018-08-06T15:10:16.995Z,20.29
2018-08-06T15:12:45.701Z,19.13
2018-08-06T15:15:18.477Z,19.43
2018-08-06T15:17:47.047Z,20.17
2018-08-06T15:20:17.389Z,20.23
2018-08-06T15:22:47.108Z,19.36
2018-08-06T15:25:19.023Z,19.81
2018-08-06T15:27:50.740Z,20.89
2018-08-06T15:30:18.826Z,19.78
2018-08-06T15:32:46.890Z,20.72
2018-08-06T15:35:15.078Z,20.36
2018-08-06T15:37:43.864Z,19.97
2018-08-06T15:40:15.080Z,19.81
2018-08-06T15:42:43.060Z,20.97
2018-08-06T15:45:12.012Z,20.82
2018-08-06T15:47:40.402Z,20.17
2018-08-06T15:50:10.906Z,20.47
2018-08-06T15:52:39.516Z,22.15
2018-08-06T15:55:08.695Z,21.97
2018-08-06T15:57:36.720Z,21.35
2018-08-06T16:00:06.392Z,20.44
2018-08-06T16:02:34.728Z,22.34
2018-08-06T16:05:02.765Z,21.40
2018-08-06T16:07:30.764Z,19.97
2018-08-06T16:09:59.157Z,20.54
2018-08-06T16:12:27.312Z,20.01
2018-08-06T16:14:57.257Z,19.86
2018-08-06T16:17:25.340Z,22.86
2018-08-06T16:19:53.663Z,21.36
2018-08-06T16:22:21.719Z,22.57
2018-08-06T16:24:50.609Z,21.40
2018-08-06T16:27:18.864Z,21.17
2018-08-06T16:29:47.113Z,20.70
2018-08-06T16:32:15.601Z,21.38
2018-08-06T16:34:43.641Z,20.83
2018-08-06T16:37:11.605Z,19.80
2018-08-06T16:39:40.156Z,21.18
2018-08-06T16:42:08.305Z,20.11
2018-08-06T16:44:37.140Z,20.18
2018-08-06T16:47:05.170Z,19.81
2018-08-06T16:49:33.347Z,20.08
2018-08-06T16:52:01.446Z,20.55
2018-08-06T16:54:29.464Z,22.41
2018-08-06T16:56:57.456Z,21.48
2018-08-06T16:59:26.056Z,21.63
2018-08-06T17:01:54.430Z,22.02
2018-08-06T17:04:22.453Z,21.96
2018-08-06T17:06:50.564Z,21.56
2018-08-06T17:09:18.557Z,21.15
2018-08-06T17:11:46.598Z,22.36
2018-08-06T17:14:14.981Z,22.04
2018-08-06T17:16:43.014Z,21.02
2018-08-06T17:19:11.058Z,21.06
2018-08-06T17:21:39.127Z,21.60
2018-08-06T17:24:07.236Z,21.28
2018-08-06T17:26:35.239Z,22.26
2018-08-06T17:29:03.351Z,21.51
2018-08-06T17:31:31.421Z,22.90
2018-08-06T17:33:59.492Z,22.74
2018-08-06T17:36:27.596Z,23.71
2018-08-06T17:38:55.761Z,22.56
2018-08-06T17:41:23.792Z,21.50
2018-08-06T17:43:51.887Z,22.59
2018-08-06T17:46:19.910Z,21.85
2018-08-06T17:48:47.944Z,22.50
2018-08-06T17:51:15.994Z,22.30
2018-08-06T17:53:44.038Z,23.11
2018-08-06T17:56:12.100Z,22.84
2018-08-06T17:58:40.217Z,23.03
2018-08-06T18:01:08.228Z,23.03
2018-08-06T18:03:36.247Z,23.54
2018-08-06T18:06:04.316Z,24.26
2018-08-06T18:08:32.390Z,24.12
2018-08-06T18:11:00.410Z,24.38
2018-08-06T18:13:28.404Z,23.58
2018-08-06T18:16:20.178Z,24.85
2018-08-06T18:18:48.201Z,24.68
2018-08-06T18:21:16.305Z,25.36
2018-08-06T18:23:44.640Z,25.27
2018-08-06T18:26:12.912Z,24.55
2018-08-06T18:28:41.946Z,24.66
2018-08-06T18:31:10.031Z,25.88
2018-08-06T18:33:38.054Z,26.07
2018-08-06T18:36:06.128Z,25.97
2018-08-06T18:38:34.199Z,26.00
2018-08-06T18:41:02.456Z,26.00
2018-08-06T18:43:30.524Z,27.12
2018-08-06T18:45:58.675Z,26.62
2018-08-06T18:48:26.707Z,26.84
2018-08-06T18:50:54.764Z,26.66
2018-08-06T18:53:22.832Z,26.18
2018-08-06T18:55:50.852Z,27.27
2018-08-06T18:58:18.944Z,27.37
2018-08-06T19:00:47.025Z,26.16
2018-08-06T19:03:15.021Z,27.32
2018-08-06T19:05:43.277Z,27.97
2018-08-06T19:08:11.377Z,27.76
2018-08-06T19:10:39.465Z,28.33
2018-08-06T19:13:12.833Z,28.38
2018-08-06T19:15:40.963Z,27.81
2018-08-06T19:18:14.451Z,28.08
2018-08-06T19:20:42.523Z,28.26
2018-08-06T19:23:10.601Z,29.91
2018-08-06T19:25:38.633Z,29.87
2018-08-06T19:28:06.653Z,30.04
2018-08-06T19:30:40.165Z,30.32
2018-08-06T19:33:08.249Z,29.56
2018-08-06T19:35:36.560Z,30.19
2018-08-06T19:38:04.609Z,30.48
2018-08-06T19:40:32.636Z,30.70
2018-08-06T19:43:06.108Z,29.83
2018-08-06T19:45:34.441Z,30.33
2018-08-06T19:48:02.438Z,30.90
2018-08-06T19:50:35.912Z,31.57
2018-08-06T19:53:04.076Z,31.89
2018-08-06T19:55:37.674Z,32.72
2018-08-06T19:58:06.145Z,31.47
2018-08-06T20:00:34.157Z,32.51
2018-08-06T20:03:02.259Z,32.93
2018-08-06T20:05:30.290Z,32.88
2018-08-06T20:07:58.297Z,32.97
2018-08-06T20:10:26.384Z,32.38
2018-08-06T20:12:54.417Z,31.97
2018-08-06T20:15:22.494Z,33.38
2018-08-06T20:17:50.737Z,33.07
2018-08-06T20:20:18.730Z,33.15
2018-08-06T20:22:46.846Z,33.42
2018-08-06T20:25:17.055Z,33.62
2018-08-06T20:27:45.748Z,32.96
2018-08-06T20:30:14.752Z,33.26
2018-08-06T20:32:42.759Z,33.81
2018-08-06T20:35:13.000Z,34.65
2018-08-06T20:37:41.363Z,34.56
2018-08-06T20:40:10.092Z,34.80
2018-08-06T20:42:40.353Z,34.18
2018-08-06T20:45:10.980Z,35.08
2018-08-06T20:47:39.722Z,35.20
2018-08-06T20:50:09.332Z,35.10
2018-08-06T20:52:37.435Z,35.57
2018-08-06T20:55:06.393Z,35.17
2018-08-06T20:57:34.412Z,34.99
2018-08-06T21:00:02.432Z,35.23
2018-08-06T21:02:30.556Z,35.83
2018-08-06T21:04:58.588Z,36.12
2018-08-06T21:07:26.730Z,37.03
2018-08-06T21:09:54.836Z,36.59
2018-08-06T21:12:25.496Z,36.10
2018-08-06T21:14:53.493Z,37.01
2018-08-06T21:17:21.560Z,36.50
2018-08-06T21:19:49.552Z,37.33
2018-08-06T21:22:17.604Z,37.07
2018-08-06T21:24:45.616Z,36.42
2018-08-06T21:27:13.676Z,36.48
2018-08-06T21:29:41.780Z,37.26
2018-08-06T21:32:09.812Z,36.17
2018-08-06T21:34:37.832Z,37.25
2018-08-06T21:37:05.893Z,37.53
2018-08-06T21:39:33.974Z,37.48
2018-08-06T21:42:02.003Z,36.83
2018-08-06T21:44:30.165Z,36.79
2018-08-06T21:46:58.145Z,36.63
2018-08-06T21:49:26.181Z,37.45
2018-08-06T21:51:54.201Z,36.85
2018-08-06T21:54:22.224Z,37.89
2018-08-06T21:56:50.240Z,37.61
2018-08-06T21:59:18.470Z,38.38
2018-08-06T22:01:46.520Z,39.46
2018-08-06T22:04:14.581Z,40.51
2018-08-06T22:06:42.594Z,40.07
2018-08-06T22:09:12.677Z,41.47
2018-08-06T22:11:40.753Z,39.61
2018-08-06T22:14:09.677Z,39.55
2018-08-06T22:16:37.950Z,39.22
2018-08-06T22:19:07.524Z,39.99
2018-08-06T22:21:35.723Z,40.47
2018-08-06T22:24:03.765Z,40.10
2018-08-06T22:26:31.780Z,40.06
2018-08-06T22:28:59.805Z,39.39
2018-08-06T22:31:28.009Z,39.80
2018-08-06T22:33:56.042Z,39.24
2018-08-06T22:36:23.989Z,39.53
2018-08-06T22:38:53.296Z,39.92
2018-08-06T22:41:21.724Z,39.64
2018-08-06T22:43:49.732Z,40.03
2018-08-06T22:46:17.843Z,39.08
2018-08-06T22:48:45.860Z,39.18
2018-08-06T22:51:13.964Z,39.06
2018-08-06T22:53:42.024Z,39.85
2018-08-06T22:56:10.769Z,38.89
2018-08-06T22:58:39.073Z,39.58
2018-08-06T23:01:08.280Z,39.04
2018-08-06T23:03:36.420Z,38.81
2018-08-06T23:06:04.477Z,39.16
2018-08-06T23:08:32.541Z,39.95
2018-08-06T23:11:00.584Z,39.11
2018-08-06T23:13:28.618Z,39.11
2018-08-06T23:15:56.620Z,39.19
2018-08-06T23:18:24.629Z,39.11
2018-08-06T23:20:52.664Z,39.43
2018-08-06T23:23:20.696Z,39.39
2018-08-06T23:25:48.731Z,39.42
2018-08-06T23:28:16.748Z,39.44
2018-08-06T23:30:44.728Z,39.75
2018-08-06T23:33:13.024Z,39.82
2018-08-06T23:35:41.062Z,40.88
2018-08-06T23:38:09.065Z,40.11
2018-08-06T23:40:37.069Z,40.16
2018-08-06T23:43:05.069Z,40.10
2018-08-06T23:45:33.064Z,40.03
2018-08-06T23:48:01.078Z,40.11
2018-08-06T23:50:29.185Z,40.20
2018-08-06T23:52:57.215Z,41.15
2018-08-06T23:55:25.309Z,41.19
2018-08-06T23:57:53.329Z,40.46
